sensor_id;sensor_type;location;lat;lon;timestamp;P1;durP1;ratioP1;P2;durP2;ratioP2
44842;SDS011;31884;52.538;13.820;2023-04-25T00:01:21;4.65;;;2.13;;
44842;SDS011;31884;52.538;13.820;2023-04-25T00:03:47;2.45;;;2.08;;
44842;SDS011;31884;52.538;13.820;2023-04-25T00:06:13;2.95;;;2.25;;
44842;SDS011;31884;52.538;13.820;2023-04-25T00:08:38;3.67;;;2.35;;
44842;SDS011;31884;52.538;13.820;2023-04-25T00:11:04;5.25;;;2.10;;
44842;SDS011;31884;52.538;13.820;2023-04-25T00:13:30;2.60;;;1.75;;
44842;SDS011;31884;52.538;13.820;2023-04-25T00:15:55;4.32;;;1.83;;
44842;SDS011;31884;52.538;13.820;2023-04-25T00:18:21;4.95;;;2.20;;
44842;SDS011;31884;52.538;13.820;2023-04-25T00:20:47;4.15;;;2.22;;
44842;SDS011;31884;52.538;13.820;2023-04-25T00:23:13;2.80;;;1.75;;
44842;SDS011;31884;52.538;13.820;2023-04-25T00:25:45;2.25;;;1.70;;
44842;SDS011;31884;52.538;13.820;2023-04-25T00:28:12;5.32;;;2.00;;
44842;SDS011;31884;52.538;13.820;2023-04-25T00:30:38;3.85;;;2.15;;
44842;SDS011;31884;52.538;13.820;2023-04-25T00:33:05;2.45;;;2.03;;
44842;SDS011;31884;52.538;13.820;2023-04-25T00:35:30;3.95;;;2.10;;
44842;SDS011;31884;52.538;13.820;2023-04-25T00:37:56;3.75;;;1.92;;
44842;SDS011;31884;52.538;13.820;2023-04-25T00:40:21;4.55;;;2.05;;
44842;SDS011;31884;52.538;13.820;2023-04-25T00:42:47;4.88;;;2.13;;
44842;SDS011;31884;52.538;13.820;2023-04-25T00:45:14;3.67;;;1.77;;
44842;SDS011;31884;52.538;13.820;2023-04-25T00:47:40;3.63;;;2.08;;
44842;SDS011;31884;52.538;13.820;2023-04-25T00:50:07;3.35;;;1.70;;
44842;SDS011;31884;52.538;13.820;2023-04-25T00:52:33;2.95;;;1.70;;
44842;SDS011;31884;52.538;13.820;2023-04-25T00:54:59;2.65;;;1.80;;
44842;SDS011;31884;52.538;13.820;2023-04-25T00:57:25;4.50;;;1.83;;
44842;SDS011;31884;52.538;13.820;2023-04-25T00:59:51;3.33;;;2.22;;
44842;SDS011;31884;52.538;13.820;2023-04-25T01:02:17;3.80;;;2.13;;
44842;SDS011;31884;52.538;13.820;2023-04-25T01:04:44;3.45;;;1.67;;
44842;SDS011;31884;52.538;13.820;2023-04-25T01:07:10;5.82;;;1.88;;
44842;SDS011;31884;52.538;13.820;2023-04-25T01:09:35;3.22;;;1.48;;
44842;SDS011;31884;52.538;13.820;2023-04-25T01:12:01;2.38;;;1.42;;
44842;SDS011;31884;52.538;13.820;2023-04-25T01:14:27;3.17;;;1.70;;
44842;SDS011;31884;52.538;13.820;2023-04-25T01:16:54;3.15;;;1.45;;
44842;SDS011;31884;52.538;13.820;2023-04-25T01:19:19;2.45;;;1.52;;
44842;SDS011;31884;52.538;13.820;2023-04-25T01:21:45;4.43;;;1.55;;
44842;SDS011;31884;52.538;13.820;2023-04-25T01:24:11;3.00;;;1.40;;
44842;SDS011;31884;52.538;13.820;2023-04-25T01:26:37;3.80;;;1.67;;
44842;SDS011;31884;52.538;13.820;2023-04-25T01:29:04;5.38;;;1.88;;
44842;SDS011;31884;52.538;13.820;2023-04-25T01:31:31;4.13;;;1.50;;
44842;SDS011;31884;52.538;13.820;2023-04-25T01:33:57;6.13;;;1.83;;
44842;SDS011;31884;52.538;13.820;2023-04-25T01:36:23;3.78;;;1.55;;
44842;SDS011;31884;52.538;13.820;2023-04-25T01:38:48;3.30;;;1.38;;
44842;SDS011;31884;52.538;13.820;2023-04-25T01:41:15;4.03;;;1.67;;
44842;SDS011;31884;52.538;13.820;2023-04-25T01:43:42;3.38;;;1.30;;
44842;SDS011;31884;52.538;13.820;2023-04-25T01:46:08;2.40;;;1.40;;
44842;SDS011;31884;52.538;13.820;2023-04-25T01:48:35;4.00;;;1.23;;
44842;SDS011;31884;52.538;13.820;2023-04-25T01:51:00;6.82;;;1.98;;
44842;SDS011;31884;52.538;13.820;2023-04-25T01:53:26;2.28;;;1.67;;
44842;SDS011;31884;52.538;13.820;2023-04-25T01:55:52;4.45;;;1.67;;
44842;SDS011;31884;52.538;13.820;2023-04-25T01:58:17;5.28;;;1.45;;
44842;SDS011;31884;52.538;13.820;2023-04-25T02:00:43;5.57;;;1.85;;
44842;SDS011;31884;52.538;13.820;2023-04-25T02:03:09;4.60;;;1.67;;
44842;SDS011;31884;52.538;13.820;2023-04-25T02:05:38;4.97;;;1.55;;
44842;SDS011;31884;52.538;13.820;2023-04-25T02:08:05;2.03;;;1.48;;
44842;SDS011;31884;52.538;13.820;2023-04-25T02:10:32;7.63;;;1.83;;
44842;SDS011;31884;52.538;13.820;2023-04-25T02:12:58;2.00;;;1.52;;
44842;SDS011;31884;52.538;13.820;2023-04-25T02:15:24;7.75;;;2.50;;
44842;SDS011;31884;52.538;13.820;2023-04-25T02:17:49;4.60;;;1.55;;
44842;SDS011;31884;52.538;13.820;2023-04-25T02:20:17;3.22;;;1.60;;
44842;SDS011;31884;52.538;13.820;2023-04-25T02:22:44;4.32;;;1.73;;
44842;SDS011;31884;52.538;13.820;2023-04-25T02:25:10;3.50;;;1.95;;
44842;SDS011;31884;52.538;13.820;2023-04-25T02:27:36;8.07;;;1.92;;
44842;SDS011;31884;52.538;13.820;2023-04-25T02:30:02;8.02;;;1.75;;
44842;SDS011;31884;52.538;13.820;2023-04-25T02:32:28;4.88;;;1.95;;
44842;SDS011;31884;52.538;13.820;2023-04-25T02:34:53;4.35;;;2.00;;
44842;SDS011;31884;52.538;13.820;2023-04-25T02:37:19;3.42;;;1.83;;
44842;SDS011;31884;52.538;13.820;2023-04-25T02:39:44;5.70;;;2.28;;
44842;SDS011;31884;52.538;13.820;2023-04-25T02:42:10;5.38;;;1.85;;
44842;SDS011;31884;52.538;13.820;2023-04-25T02:44:36;3.83;;;1.77;;
44842;SDS011;31884;52.538;13.820;2023-04-25T02:47:01;6.35;;;2.35;;
44842;SDS011;31884;52.538;13.820;2023-04-25T02:49:27;6.22;;;2.38;;
44842;SDS011;31884;52.538;13.820;2023-04-25T02:51:52;6.25;;;2.20;;
44842;SDS011;31884;52.538;13.820;2023-04-25T02:54:18;2.25;;;1.80;;
44842;SDS011;31884;52.538;13.820;2023-04-25T02:56:43;4.85;;;2.15;;
44842;SDS011;31884;52.538;13.820;2023-04-25T02:59:09;9.48;;;2.15;;
44842;SDS011;31884;52.538;13.820;2023-04-25T03:01:34;6.22;;;2.25;;
44842;SDS011;31884;52.538;13.820;2023-04-25T03:03:59;4.90;;;2.00;;
44842;SDS011;31884;52.538;13.820;2023-04-25T03:06:25;2.15;;;1.80;;
44842;SDS011;31884;52.538;13.820;2023-04-25T03:08:50;4.60;;;2.60;;
44842;SDS011;31884;52.538;13.820;2023-04-25T03:11:16;6.13;;;2.20;;
44842;SDS011;31884;52.538;13.820;2023-04-25T03:13:41;6.55;;;2.40;;
44842;SDS011;31884;52.538;13.820;2023-04-25T03:16:07;6.97;;;2.40;;
44842;SDS011;31884;52.538;13.820;2023-04-25T03:18:32;5.70;;;2.42;;
44842;SDS011;31884;52.538;13.820;2023-04-25T03:20:58;8.43;;;2.40;;
44842;SDS011;31884;52.538;13.820;2023-04-25T03:23:23;6.53;;;2.65;;
44842;SDS011;31884;52.538;13.820;2023-04-25T03:25:49;3.13;;;2.10;;
44842;SDS011;31884;52.538;13.820;2023-04-25T03:28:14;7.25;;;2.30;;
44842;SDS011;31884;52.538;13.820;2023-04-25T03:30:40;3.70;;;2.10;;
44842;SDS011;31884;52.538;13.820;2023-04-25T03:33:05;4.18;;;2.40;;
44842;SDS011;31884;52.538;13.820;2023-04-25T03:35:31;4.30;;;2.33;;
44842;SDS011;31884;52.538;13.820;2023-04-25T03:37:56;5.32;;;2.58;;
44842;SDS011;31884;52.538;13.820;2023-04-25T03:40:22;3.30;;;2.28;;
44842;SDS011;31884;52.538;13.820;2023-04-25T03:42:47;3.83;;;1.98;;
44842;SDS011;31884;52.538;13.820;2023-04-25T03:45:13;6.63;;;2.20;;
44842;SDS011;31884;52.538;13.820;2023-04-25T03:47:38;5.43;;;2.20;;
44842;SDS011;31884;52.538;13.820;2023-04-25T03:50:04;4.22;;;1.83;;
44842;SDS011;31884;52.538;13.820;2023-04-25T03:52:30;4.90;;;2.03;;
44842;SDS011;31884;52.538;13.820;2023-04-25T03:54:55;5.85;;;2.97;;
44842;SDS011;31884;52.538;13.820;2023-04-25T03:57:21;4.78;;;2.60;;
44842;SDS011;31884;52.538;13.820;2023-04-25T03:59:46;6.13;;;2.58;;
44842;SDS011;31884;52.538;13.820;2023-04-25T04:02:12;7.85;;;2.78;;
44842;SDS011;31884;52.538;13.820;2023-04-25T04:04:37;7.05;;;2.80;;
44842;SDS011;31884;52.538;13.820;2023-04-25T04:07:03;10.13;;;3.13;;
44842;SDS011;31884;52.538;13.820;2023-04-25T04:09:28;5.50;;;2.70;;
44842;SDS011;31884;52.538;13.820;2023-04-25T04:11:54;6.47;;;2.40;;
44842;SDS011;31884;52.538;13.820;2023-04-25T04:14:20;5.80;;;2.22;;
44842;SDS011;31884;52.538;13.820;2023-04-25T04:16:45;5.72;;;2.45;;
44842;SDS011;31884;52.538;13.820;2023-04-25T04:19:11;6.80;;;2.70;;
44842;SDS011;31884;52.538;13.820;2023-04-25T04:21:36;7.57;;;2.70;;
44842;SDS011;31884;52.538;13.820;2023-04-25T04:24:02;5.03;;;2.60;;
44842;SDS011;31884;52.538;13.820;2023-04-25T04:26:28;5.55;;;2.40;;
44842;SDS011;31884;52.538;13.820;2023-04-25T04:28:53;4.38;;;2.42;;
44842;SDS011;31884;52.538;13.820;2023-04-25T04:31:22;3.58;;;2.42;;
44842;SDS011;31884;52.538;13.820;2023-04-25T04:33:48;5.22;;;2.80;;
44842;SDS011;31884;52.538;13.820;2023-04-25T04:36:14;6.18;;;3.63;;
44842;SDS011;31884;52.538;13.820;2023-04-25T04:38:40;4.90;;;3.10;;
44842;SDS011;31884;52.538;13.820;2023-04-25T04:41:07;5.88;;;3.42;;
44842;SDS011;31884;52.538;13.820;2023-04-25T04:43:33;5.43;;;2.70;;
44842;SDS011;31884;52.538;13.820;2023-04-25T04:46:00;11.25;;;2.78;;
44842;SDS011;31884;52.538;13.820;2023-04-25T04:48:25;4.88;;;2.20;;
44842;SDS011;31884;52.538;13.820;2023-04-25T04:50:51;9.05;;;3.17;;
44842;SDS011;31884;52.538;13.820;2023-04-25T04:53:17;7.05;;;2.80;;
44842;SDS011;31884;52.538;13.820;2023-04-25T04:55:42;7.95;;;3.08;;
44842;SDS011;31884;52.538;13.820;2023-04-25T04:58:08;10.43;;;2.70;;
44842;SDS011;31884;52.538;13.820;2023-04-25T05:00:34;5.72;;;2.53;;
44842;SDS011;31884;52.538;13.820;2023-04-25T05:02:59;5.28;;;2.80;;
44842;SDS011;31884;52.538;13.820;2023-04-25T05:05:25;5.85;;;2.67;;
44842;SDS011;31884;52.538;13.820;2023-04-25T05:07:51;5.57;;;2.30;;
44842;SDS011;31884;52.538;13.820;2023-04-25T05:10:16;4.70;;;2.47;;
44842;SDS011;31884;52.538;13.820;2023-04-25T05:12:43;6.18;;;2.85;;
44842;SDS011;31884;52.538;13.820;2023-04-25T05:15:09;4.80;;;2.40;;
44842;SDS011;31884;52.538;13.820;2023-04-25T05:17:35;8.13;;;2.55;;
44842;SDS011;31884;52.538;13.820;2023-04-25T05:20:00;6.47;;;3.15;;
44842;SDS011;31884;52.538;13.820;2023-04-25T05:22:26;5.47;;;2.35;;
44842;SDS011;31884;52.538;13.820;2023-04-25T05:24:52;5.65;;;2.53;;
44842;SDS011;31884;52.538;13.820;2023-04-25T05:27:17;3.25;;;1.92;;
44842;SDS011;31884;52.538;13.820;2023-04-25T05:29:44;3.90;;;2.38;;
44842;SDS011;31884;52.538;13.820;2023-04-25T05:32:09;5.28;;;2.33;;
44842;SDS011;31884;52.538;13.820;2023-04-25T05:34:35;5.82;;;2.20;;
44842;SDS011;31884;52.538;13.820;2023-04-25T05:37:01;6.07;;;2.67;;
44842;SDS011;31884;52.538;13.820;2023-04-25T05:39:27;6.97;;;2.90;;
44842;SDS011;31884;52.538;13.820;2023-04-25T05:41:53;4.32;;;2.05;;
44842;SDS011;31884;52.538;13.820;2023-04-25T05:44:18;4.68;;;2.50;;
44842;SDS011;31884;52.538;13.820;2023-04-25T05:46:44;3.65;;;2.20;;
44842;SDS011;31884;52.538;13.820;2023-04-25T05:49:09;6.63;;;2.63;;
44842;SDS011;31884;52.538;13.820;2023-04-25T05:51:35;9.25;;;2.45;;
44842;SDS011;31884;52.538;13.820;2023-04-25T05:54:01;7.40;;;2.95;;
44842;SDS011;31884;52.538;13.820;2023-04-25T05:56:26;5.30;;;2.40;;
44842;SDS011;31884;52.538;13.820;2023-04-25T05:58:52;6.43;;;2.92;;
44842;SDS011;31884;52.538;13.820;2023-04-25T06:01:18;6.65;;;2.45;;
44842;SDS011;31884;52.538;13.820;2023-04-25T06:03:43;5.78;;;2.70;;
44842;SDS011;31884;52.538;13.820;2023-04-25T06:06:09;9.45;;;3.25;;
44842;SDS011;31884;52.538;13.820;2023-04-25T06:08:36;3.95;;;2.10;;
44842;SDS011;31884;52.538;13.820;2023-04-25T06:11:02;4.18;;;2.47;;
44842;SDS011;31884;52.538;13.820;2023-04-25T06:13:28;5.85;;;2.40;;
44842;SDS011;31884;52.538;13.820;2023-04-25T06:15:53;5.03;;;2.33;;
44842;SDS011;31884;52.538;13.820;2023-04-25T06:18:19;4.32;;;2.22;;
44842;SDS011;31884;52.538;13.820;2023-04-25T06:20:45;5.57;;;2.13;;
44842;SDS011;31884;52.538;13.820;2023-04-25T06:23:10;5.55;;;2.20;;
44842;SDS011;31884;52.538;13.820;2023-04-25T06:25:36;5.55;;;2.05;;
44842;SDS011;31884;52.538;13.820;2023-04-25T06:28:01;4.30;;;2.13;;
44842;SDS011;31884;52.538;13.820;2023-04-25T06:30:26;6.85;;;2.92;;
44842;SDS011;31884;52.538;13.820;2023-04-25T06:32:52;4.20;;;2.65;;
44842;SDS011;31884;52.538;13.820;2023-04-25T06:35:18;7.72;;;2.95;;
44842;SDS011;31884;52.538;13.820;2023-04-25T06:37:44;6.40;;;2.60;;
44842;SDS011;31884;52.538;13.820;2023-04-25T06:40:09;7.28;;;3.13;;
44842;SDS011;31884;52.538;13.820;2023-04-25T06:42:35;4.22;;;2.63;;
44842;SDS011;31884;52.538;13.820;2023-04-25T06:45:01;7.35;;;2.97;;
44842;SDS011;31884;52.538;13.820;2023-04-25T06:47:27;8.05;;;3.38;;
44842;SDS011;31884;52.538;13.820;2023-04-25T06:49:52;8.32;;;3.03;;
44842;SDS011;31884;52.538;13.820;2023-04-25T06:52:18;4.20;;;2.92;;
44842;SDS011;31884;52.538;13.820;2023-04-25T06:54:44;4.85;;;2.78;;
44842;SDS011;31884;52.538;13.820;2023-04-25T06:57:10;6.55;;;2.30;;
44842;SDS011;31884;52.538;13.820;2023-04-25T06:59:35;4.50;;;2.65;;
44842;SDS011;31884;52.538;13.820;2023-04-25T07:02:01;4.90;;;2.80;;
44842;SDS011;31884;52.538;13.820;2023-04-25T07:04:27;5.75;;;3.10;;
44842;SDS011;31884;52.538;13.820;2023-04-25T07:06:52;5.97;;;2.53;;
44842;SDS011;31884;52.538;13.820;2023-04-25T07:09:18;11.20;;;3.17;;
44842;SDS011;31884;52.538;13.820;2023-04-25T07:11:44;6.72;;;2.75;;
44842;SDS011;31884;52.538;13.820;2023-04-25T07:14:09;8.88;;;3.22;;
44842;SDS011;31884;52.538;13.820;2023-04-25T07:16:35;5.18;;;2.92;;
44842;SDS011;31884;52.538;13.820;2023-04-25T07:19:00;5.13;;;2.72;;
44842;SDS011;31884;52.538;13.820;2023-04-25T07:21:26;6.20;;;2.97;;
44842;SDS011;31884;52.538;13.820;2023-04-25T07:23:51;4.53;;;2.70;;
44842;SDS011;31884;52.538;13.820;2023-04-25T07:26:17;4.80;;;2.80;;
44842;SDS011;31884;52.538;13.820;2023-04-25T07:28:42;7.70;;;2.80;;
44842;SDS011;31884;52.538;13.820;2023-04-25T07:31:08;4.13;;;2.70;;
44842;SDS011;31884;52.538;13.820;2023-04-25T07:33:33;7.13;;;3.22;;
44842;SDS011;31884;52.538;13.820;2023-04-25T07:35:59;4.28;;;2.42;;
44842;SDS011;31884;52.538;13.820;2023-04-25T07:38:25;4.18;;;2.13;;
44842;SDS011;31884;52.538;13.820;2023-04-25T07:40:50;4.65;;;2.50;;
44842;SDS011;31884;52.538;13.820;2023-04-25T07:43:16;4.07;;;2.20;;
44842;SDS011;31884;52.538;13.820;2023-04-25T07:45:45;4.88;;;2.22;;
44842;SDS011;31884;52.538;13.820;2023-04-25T07:48:11;3.42;;;2.45;;
44842;SDS011;31884;52.538;13.820;2023-04-25T07:50:41;4.45;;;2.03;;
44842;SDS011;31884;52.538;13.820;2023-04-25T07:53:06;5.90;;;2.95;;
44842;SDS011;31884;52.538;13.820;2023-04-25T07:55:32;5.55;;;3.38;;
44842;SDS011;31884;52.538;13.820;2023-04-25T07:57:57;4.68;;;2.30;;
44842;SDS011;31884;52.538;13.820;2023-04-25T08:00:23;6.38;;;2.92;;
44842;SDS011;31884;52.538;13.820;2023-04-25T08:02:48;6.40;;;2.92;;
44842;SDS011;31884;52.538;13.820;2023-04-25T08:05:16;4.35;;;2.53;;
44842;SDS011;31884;52.538;13.820;2023-04-25T08:07:41;4.78;;;2.47;;
44842;SDS011;31884;52.538;13.820;2023-04-25T08:10:07;6.07;;;2.67;;
44842;SDS011;31884;52.538;13.820;2023-04-25T08:12:33;7.28;;;3.15;;
44842;SDS011;31884;52.538;13.820;2023-04-25T08:14:59;7.05;;;2.60;;
44842;SDS011;31884;52.538;13.820;2023-04-25T08:17:24;3.92;;;2.40;;
44842;SDS011;31884;52.538;13.820;2023-04-25T08:19:50;7.38;;;2.88;;
44842;SDS011;31884;52.538;13.820;2023-04-25T08:22:15;7.63;;;2.35;;
44842;SDS011;31884;52.538;13.820;2023-04-25T08:24:41;6.53;;;2.90;;
44842;SDS011;31884;52.538;13.820;2023-04-25T08:27:06;6.30;;;2.92;;
44842;SDS011;31884;52.538;13.820;2023-04-25T08:29:32;8.63;;;2.67;;
44842;SDS011;31884;52.538;13.820;2023-04-25T08:31:59;5.78;;;2.55;;
44842;SDS011;31884;52.538;13.820;2023-04-25T08:34:25;6.25;;;3.40;;
44842;SDS011;31884;52.538;13.820;2023-04-25T08:36:50;6.18;;;2.90;;
44842;SDS011;31884;52.538;13.820;2023-04-25T08:39:16;5.45;;;2.45;;
44842;SDS011;31884;52.538;13.820;2023-04-25T08:41:42;6.90;;;2.55;;
44842;SDS011;31884;52.538;13.820;2023-04-25T08:44:10;7.78;;;2.33;;
44842;SDS011;31884;52.538;13.820;2023-04-25T08:46:37;6.88;;;2.40;;
44842;SDS011;31884;52.538;13.820;2023-04-25T08:49:05;7.18;;;2.00;;
44842;SDS011;31884;52.538;13.820;2023-04-25T08:51:32;7.03;;;2.88;;
44842;SDS011;31884;52.538;13.820;2023-04-25T08:54:02;6.30;;;2.28;;
44842;SDS011;31884;52.538;13.820;2023-04-25T08:56:35;7.55;;;2.28;;
44842;SDS011;31884;52.538;13.820;2023-04-25T08:59:02;6.65;;;2.13;;
44842;SDS011;31884;52.538;13.820;2023-04-25T09:01:28;5.50;;;2.47;;
44842;SDS011;31884;52.538;13.820;2023-04-25T09:03:53;9.48;;;2.50;;
44842;SDS011;31884;52.538;13.820;2023-04-25T09:06:19;5.97;;;2.60;;
44842;SDS011;31884;52.538;13.820;2023-04-25T09:08:45;8.20;;;3.05;;
44842;SDS011;31884;52.538;13.820;2023-04-25T09:11:10;7.22;;;2.25;;
44842;SDS011;31884;52.538;13.820;2023-04-25T09:13:37;7.93;;;2.58;;
44842;SDS011;31884;52.538;13.820;2023-04-25T09:16:03;9.60;;;2.17;;
44842;SDS011;31884;52.538;13.820;2023-04-25T09:18:30;8.18;;;2.67;;
44842;SDS011;31884;52.538;13.820;2023-04-25T09:21:07;9.52;;;2.80;;
44842;SDS011;31884;52.538;13.820;2023-04-25T09:23:41;6.68;;;2.47;;
44842;SDS011;31884;52.538;13.820;2023-04-25T09:26:13;10.98;;;2.30;;
44842;SDS011;31884;52.538;13.820;2023-04-25T09:28:40;9.13;;;2.10;;
44842;SDS011;31884;52.538;13.820;2023-04-25T09:31:07;7.90;;;2.50;;
44842;SDS011;31884;52.538;13.820;2023-04-25T09:33:35;8.55;;;2.63;;
44842;SDS011;31884;52.538;13.820;2023-04-25T09:36:01;9.88;;;2.25;;
44842;SDS011;31884;52.538;13.820;2023-04-25T09:38:28;10.80;;;2.10;;
44842;SDS011;31884;52.538;13.820;2023-04-25T09:41:05;8.40;;;2.38;;
44842;SDS011;31884;52.538;13.820;2023-04-25T09:43:30;7.25;;;2.38;;
44842;SDS011;31884;52.538;13.820;2023-04-25T09:45:56;8.82;;;2.33;;
44842;SDS011;31884;52.538;13.820;2023-04-25T09:48:25;6.88;;;2.45;;
44842;SDS011;31884;52.538;13.820;2023-04-25T09:51:11;8.13;;;2.65;;
44842;SDS011;31884;52.538;13.820;2023-04-25T09:53:41;7.20;;;2.03;;
44842;SDS011;31884;52.538;13.820;2023-04-25T09:56:11;8.23;;;2.25;;
44842;SDS011;31884;52.538;13.820;2023-04-25T09:58:39;6.85;;;2.13;;
44842;SDS011;31884;52.538;13.820;2023-04-25T10:01:06;7.25;;;1.70;;
44842;SDS011;31884;52.538;13.820;2023-04-25T10:03:33;5.15;;;2.05;;
44842;SDS011;31884;52.538;13.820;2023-04-25T10:06:01;7.57;;;1.95;;
44842;SDS011;31884;52.538;13.820;2023-04-25T10:08:37;5.60;;;2.05;;
44842;SDS011;31884;52.538;13.820;2023-04-25T10:11:04;7.72;;;2.25;;
44842;SDS011;31884;52.538;13.820;2023-04-25T10:13:32;6.60;;;2.72;;
44842;SDS011;31884;52.538;13.820;2023-04-25T10:15:58;9.82;;;2.60;;
44842;SDS011;31884;52.538;13.820;2023-04-25T10:18:25;7.50;;;2.00;;
44842;SDS011;31884;52.538;13.820;2023-04-25T10:20:53;7.57;;;1.80;;
44842;SDS011;31884;52.538;13.820;2023-04-25T10:23:20;6.07;;;1.85;;
44842;SDS011;31884;52.538;13.820;2023-04-25T10:25:47;7.80;;;2.00;;
44842;SDS011;31884;52.538;13.820;2023-04-25T10:28:14;7.07;;;2.22;;
44842;SDS011;31884;52.538;13.820;2023-04-25T10:30:56;9.63;;;2.15;;
44842;SDS011;31884;52.538;13.820;2023-04-25T10:33:56;8.25;;;1.98;;
44842;SDS011;31884;52.538;13.820;2023-04-25T10:36:17;10.02;;;2.05;;
44842;SDS011;31884;52.538;13.820;2023-04-25T10:38:44;10.98;;;2.38;;
44842;SDS011;31884;52.538;13.820;2023-04-25T10:41:11;9.13;;;2.60;;
44842;SDS011;31884;52.538;13.820;2023-04-25T10:43:44;7.15;;;2.17;;
44842;SDS011;31884;52.538;13.820;2023-04-25T10:46:24;6.55;;;2.17;;
44842;SDS011;31884;52.538;13.820;2023-04-25T10:48:52;6.90;;;2.35;;
44842;SDS011;31884;52.538;13.820;2023-04-25T10:54:04;5.30;;;1.60;;
44842;SDS011;31884;52.538;13.820;2023-04-25T10:56:31;6.78;;;1.75;;
44842;SDS011;31884;52.538;13.820;2023-04-25T11:01:29;3.47;;;1.67;;
44842;SDS011;31884;52.538;13.820;2023-04-25T11:04:03;6.28;;;1.80;;
44842;SDS011;31884;52.538;13.820;2023-04-25T11:06:29;9.45;;;1.83;;
44842;SDS011;31884;52.538;13.820;2023-04-25T11:09:16;7.60;;;1.83;;
44842;SDS011;31884;52.538;13.820;2023-04-25T11:11:42;7.15;;;2.10;;
44842;SDS011;31884;52.538;13.820;2023-04-25T11:14:07;7.40;;;1.83;;
44842;SDS011;31884;52.538;13.820;2023-04-25T11:16:33;6.25;;;2.10;;
44842;SDS011;31884;52.538;13.820;2023-04-25T11:18:58;5.53;;;1.40;;
44842;SDS011;31884;52.538;13.820;2023-04-25T11:21:27;8.05;;;1.90;;
44842;SDS011;31884;52.538;13.820;2023-04-25T11:23:54;8.00;;;2.30;;
44842;SDS011;31884;52.538;13.820;2023-04-25T11:26:21;6.78;;;1.70;;
44842;SDS011;31884;52.538;13.820;2023-04-25T11:28:48;6.68;;;1.80;;
44842;SDS011;31884;52.538;13.820;2023-04-25T11:31:14;5.70;;;1.60;;
44842;SDS011;31884;52.538;13.820;2023-04-25T11:33:40;9.77;;;2.22;;
44842;SDS011;31884;52.538;13.820;2023-04-25T11:36:05;6.35;;;1.60;;
44842;SDS011;31884;52.538;13.820;2023-04-25T11:38:31;5.47;;;2.00;;
44842;SDS011;31884;52.538;13.820;2023-04-25T11:40:57;5.97;;;1.95;;
44842;SDS011;31884;52.538;13.820;2023-04-25T11:43:23;4.40;;;1.60;;
44842;SDS011;31884;52.538;13.820;2023-04-25T11:45:49;4.50;;;2.50;;
44842;SDS011;31884;52.538;13.820;2023-04-25T11:48:16;4.78;;;2.10;;
44842;SDS011;31884;52.538;13.820;2023-04-25T11:50:41;3.15;;;1.55;;
44842;SDS011;31884;52.538;13.820;2023-04-25T11:53:07;4.45;;;1.80;;
44842;SDS011;31884;52.538;13.820;2023-04-25T11:55:33;5.22;;;1.70;;
44842;SDS011;31884;52.538;13.820;2023-04-25T11:57:59;3.65;;;1.77;;
44842;SDS011;31884;52.538;13.820;2023-04-25T12:00:25;8.27;;;2.28;;
44842;SDS011;31884;52.538;13.820;2023-04-25T12:02:52;6.38;;;1.98;;
44842;SDS011;31884;52.538;13.820;2023-04-25T12:05:19;7.07;;;1.52;;
44842;SDS011;31884;52.538;13.820;2023-04-25T12:07:45;5.10;;;1.67;;
44842;SDS011;31884;52.538;13.820;2023-04-25T12:10:12;3.40;;;1.30;;
44842;SDS011;31884;52.538;13.820;2023-04-25T12:12:44;5.72;;;1.95;;
44842;SDS011;31884;52.538;13.820;2023-04-25T12:15:11;6.10;;;1.88;;
44842;SDS011;31884;52.538;13.820;2023-04-25T12:17:44;8.60;;;1.95;;
44842;SDS011;31884;52.538;13.820;2023-04-25T12:20:12;4.00;;;1.80;;
44842;SDS011;31884;52.538;13.820;2023-04-25T12:22:42;4.07;;;1.50;;
44842;SDS011;31884;52.538;13.820;2023-04-25T12:25:10;4.88;;;1.55;;
44842;SDS011;31884;52.538;13.820;2023-04-25T12:27:37;5.20;;;1.50;;
44842;SDS011;31884;52.538;13.820;2023-04-25T12:30:05;9.15;;;1.50;;
44842;SDS011;31884;52.538;13.820;2023-04-25T12:32:32;5.97;;;1.45;;
44842;SDS011;31884;52.538;13.820;2023-04-25T12:34:57;5.47;;;2.10;;
44842;SDS011;31884;52.538;13.820;2023-04-25T12:37:22;5.22;;;1.55;;
44842;SDS011;31884;52.538;13.820;2023-04-25T12:39:48;4.47;;;1.48;;
44842;SDS011;31884;52.538;13.820;2023-04-25T12:42:14;4.15;;;1.95;;
44842;SDS011;31884;52.538;13.820;2023-04-25T12:44:39;4.35;;;1.30;;
44842;SDS011;31884;52.538;13.820;2023-04-25T12:47:05;7.18;;;1.85;;
44842;SDS011;31884;52.538;13.820;2023-04-25T12:49:31;6.45;;;1.80;;
44842;SDS011;31884;52.538;13.820;2023-04-25T12:51:57;7.10;;;1.63;;
44842;SDS011;31884;52.538;13.820;2023-04-25T12:54:23;8.07;;;1.85;;
44842;SDS011;31884;52.538;13.820;2023-04-25T12:56:49;5.10;;;1.55;;
44842;SDS011;31884;52.538;13.820;2023-04-25T12:59:15;7.90;;;2.05;;
44842;SDS011;31884;52.538;13.820;2023-04-25T13:01:41;6.13;;;1.95;;
44842;SDS011;31884;52.538;13.820;2023-04-25T13:04:07;5.32;;;1.88;;
44842;SDS011;31884;52.538;13.820;2023-04-25T13:06:33;3.55;;;1.55;;
44842;SDS011;31884;52.538;13.820;2023-04-25T13:08:58;6.70;;;1.52;;
44842;SDS011;31884;52.538;13.820;2023-04-25T13:11:24;3.67;;;1.50;;
44842;SDS011;31884;52.538;13.820;2023-04-25T13:13:49;3.30;;;1.48;;
44842;SDS011;31884;52.538;13.820;2023-04-25T13:16:15;4.03;;;1.60;;
44842;SDS011;31884;52.538;13.820;2023-04-25T13:18:40;4.10;;;1.38;;
44842;SDS011;31884;52.538;13.820;2023-04-25T13:21:06;6.65;;;1.98;;
44842;SDS011;31884;52.538;13.820;2023-04-25T13:23:33;4.40;;;1.90;;
44842;SDS011;31884;52.538;13.820;2023-04-25T13:25:59;5.57;;;1.90;;
44842;SDS011;31884;52.538;13.820;2023-04-25T13:28:26;3.83;;;1.55;;
44842;SDS011;31884;52.538;13.820;2023-04-25T13:30:52;4.38;;;1.60;;
44842;SDS011;31884;52.538;13.820;2023-04-25T13:33:18;4.13;;;1.42;;
44842;SDS011;31884;52.538;13.820;2023-04-25T13:35:45;4.00;;;1.60;;
44842;SDS011;31884;52.538;13.820;2023-04-25T13:38:14;4.93;;;1.35;;
44842;SDS011;31884;52.538;13.820;2023-04-25T13:40:40;3.45;;;1.67;;
44842;SDS011;31884;52.538;13.820;2023-04-25T13:43:05;4.07;;;1.45;;
44842;SDS011;31884;52.538;13.820;2023-04-25T13:45:31;3.33;;;1.33;;
44842;SDS011;31884;52.538;13.820;2023-04-25T13:47:57;4.53;;;1.30;;
44842;SDS011;31884;52.538;13.820;2023-04-25T13:50:22;3.95;;;1.27;;
44842;SDS011;31884;52.538;13.820;2023-04-25T13:52:48;5.38;;;1.45;;
44842;SDS011;31884;52.538;13.820;2023-04-25T13:55:13;3.78;;;1.73;;
44842;SDS011;31884;52.538;13.820;2023-04-25T13:57:39;3.38;;;1.73;;
44842;SDS011;31884;52.538;13.820;2023-04-25T14:00:05;4.15;;;1.08;;
44842;SDS011;31884;52.538;13.820;2023-04-25T14:02:36;5.80;;;1.10;;
44842;SDS011;31884;52.538;13.820;2023-04-25T14:05:06;3.90;;;1.33;;
44842;SDS011;31884;52.538;13.820;2023-04-25T14:07:32;7.47;;;1.50;;
44842;SDS011;31884;52.538;13.820;2023-04-25T14:09:59;5.13;;;1.30;;
44842;SDS011;31884;52.538;13.820;2023-04-25T14:12:25;5.68;;;1.50;;
44842;SDS011;31884;52.538;13.820;2023-04-25T14:14:51;5.68;;;1.30;;
44842;SDS011;31884;52.538;13.820;2023-04-25T14:17:17;4.10;;;1.42;;
44842;SDS011;31884;52.538;13.820;2023-04-25T14:19:46;6.57;;;1.55;;
44842;SDS011;31884;52.538;13.820;2023-04-25T14:22:13;4.07;;;1.42;;
44842;SDS011;31884;52.538;13.820;2023-04-25T14:24:40;4.10;;;1.60;;
44842;SDS011;31884;52.538;13.820;2023-04-25T14:27:06;5.07;;;1.80;;
44842;SDS011;31884;52.538;13.820;2023-04-25T14:29:31;5.70;;;1.60;;
44842;SDS011;31884;52.538;13.820;2023-04-25T14:31:57;8.13;;;1.90;;
44842;SDS011;31884;52.538;13.820;2023-04-25T14:34:24;4.35;;;1.65;;